sensor_id;sensor_type;location;lat;lon;timestamp;P1;durP1;ratioP1;P2;durP2;ratioP2
75165;SDS011;63747;48.042;10.088;2023-04-03T00:00:20;6.83;;;6.13;;
75165;SDS011;63747;48.042;10.088;2023-04-03T00:03:20;7.50;;;5.93;;
75165;SDS011;63747;48.042;10.088;2023-04-03T00:06:21;7.73;;;6.43;;
75165;SDS011;63747;48.042;10.088;2023-04-03T00:09:23;7.18;;;6.47;;
75165;SDS011;63747;48.042;10.088;2023-04-03T00:12:24;7.53;;;6.83;;
75165;SDS011;63747;48.042;10.088;2023-04-03T00:15:25;7.60;;;6.83;;
75165;SDS011;63747;48.042;10.088;2023-04-03T00:18:25;6.93;;;6.23;;
75165;SDS011;63747;48.042;10.088;2023-04-03T00:21:26;7.40;;;6.60;;
75165;SDS011;63747;48.042;10.088;2023-04-03T00:24:27;9.00;;;6.77;;
75165;SDS011;63747;48.042;10.088;2023-04-03T00:27:27;8.37;;;6.63;;
75165;SDS011;63747;48.042;10.088;2023-04-03T00:30:28;7.40;;;6.43;;
75165;SDS011;63747;48.042;10.088;2023-04-03T00:33:29;6.30;;;5.70;;
75165;SDS011;63747;48.042;10.088;2023-04-03T00:36:29;7.40;;;6.70;;
75165;SDS011;63747;48.042;10.088;2023-04-03T00:39:30;6.83;;;6.17;;
75165;SDS011;63747;48.042;10.088;2023-04-03T00:42:31;6.28;;;5.68;;
75165;SDS011;63747;48.042;10.088;2023-04-03T00:45:35;6.60;;;5.80;;
75165;SDS011;63747;48.042;10.088;2023-04-03T00:48:39;6.20;;;5.50;;
75165;SDS011;63747;48.042;10.088;2023-04-03T00:51:42;6.25;;;5.65;;
75165;SDS011;63747;48.042;10.088;2023-04-03T00:54:43;7.37;;;5.90;;
75165;SDS011;63747;48.042;10.088;2023-04-03T00:57:46;5.93;;;5.18;;
75165;SDS011;63747;48.042;10.088;2023-04-03T01:00:50;5.85;;;5.22;;
75165;SDS011;63747;48.042;10.088;2023-04-03T01:03:58;6.50;;;5.10;;
75165;SDS011;63747;48.042;10.088;2023-04-03T01:07:04;5.78;;;5.18;;
75165;SDS011;63747;48.042;10.088;2023-04-03T01:10:10;5.90;;;5.30;;
75165;SDS011;63747;48.042;10.088;2023-04-03T01:13:18;6.22;;;5.15;;
75165;SDS011;63747;48.042;10.088;2023-04-03T01:16:32;5.47;;;4.95;;
75165;SDS011;63747;48.042;10.088;2023-04-03T01:19:33;5.53;;;4.90;;
75165;SDS011;63747;48.042;10.088;2023-04-03T01:26:11;5.05;;;4.50;;
75165;SDS011;63747;48.042;10.088;2023-04-03T01:29:12;4.90;;;4.40;;
75165;SDS011;63747;48.042;10.088;2023-04-03T01:32:12;5.60;;;4.30;;
75165;SDS011;63747;48.042;10.088;2023-04-03T01:35:13;5.17;;;4.63;;
75165;SDS011;63747;48.042;10.088;2023-04-03T01:38:14;5.43;;;4.30;;
75165;SDS011;63747;48.042;10.088;2023-04-03T01:41:15;4.40;;;4.00;;
75165;SDS011;63747;48.042;10.088;2023-04-03T01:44:16;6.17;;;4.53;;
75165;SDS011;63747;48.042;10.088;2023-04-03T01:47:17;4.57;;;4.13;;
75165;SDS011;63747;48.042;10.088;2023-04-03T01:50:18;5.30;;;4.43;;
75165;SDS011;63747;48.042;10.088;2023-04-03T01:53:18;5.23;;;4.73;;
75165;SDS011;63747;48.042;10.088;2023-04-03T01:56:19;6.00;;;5.07;;
75165;SDS011;63747;48.042;10.088;2023-04-03T01:59:20;7.43;;;5.30;;
75165;SDS011;63747;48.042;10.088;2023-04-03T02:02:20;6.20;;;5.40;;
75165;SDS011;63747;48.042;10.088;2023-04-03T02:05:21;6.47;;;5.50;;
75165;SDS011;63747;48.042;10.088;2023-04-03T02:08:22;6.90;;;5.47;;
75165;SDS011;63747;48.042;10.088;2023-04-03T02:11:23;6.27;;;5.33;;
75165;SDS011;63747;48.042;10.088;2023-04-03T02:14:23;5.37;;;4.87;;
75165;SDS011;63747;48.042;10.088;2023-04-03T02:17:24;6.50;;;5.30;;
75165;SDS011;63747;48.042;10.088;2023-04-03T02:20:25;5.77;;;5.17;;
75165;SDS011;63747;48.042;10.088;2023-04-03T02:23:26;5.87;;;5.07;;
75165;SDS011;63747;48.042;10.088;2023-04-03T02:26:27;6.37;;;5.27;;
75165;SDS011;63747;48.042;10.088;2023-04-03T02:29:27;7.17;;;5.73;;
75165;SDS011;63747;48.042;10.088;2023-04-03T02:32:28;6.13;;;5.40;;
75165;SDS011;63747;48.042;10.088;2023-04-03T02:35:29;5.35;;;4.85;;
75165;SDS011;63747;48.042;10.088;2023-04-03T02:38:30;8.17;;;5.20;;
75165;SDS011;63747;48.042;10.088;2023-04-03T02:41:31;6.00;;;5.17;;
75165;SDS011;63747;48.042;10.088;2023-04-03T02:44:35;7.65;;;5.40;;
75165;SDS011;63747;48.042;10.088;2023-04-03T02:47:36;6.23;;;4.93;;
75165;SDS011;63747;48.042;10.088;2023-04-03T02:50:36;6.40;;;4.87;;
75165;SDS011;63747;48.042;10.088;2023-04-03T02:53:37;6.30;;;5.20;;
75165;SDS011;63747;48.042;10.088;2023-04-03T02:56:38;6.33;;;5.03;;
75165;SDS011;63747;48.042;10.088;2023-04-03T02:59:39;5.03;;;4.53;;
75165;SDS011;63747;48.042;10.088;2023-04-03T03:02:40;5.55;;;5.03;;
75165;SDS011;63747;48.042;10.088;2023-04-03T03:05:41;6.33;;;4.37;;
75165;SDS011;63747;48.042;10.088;2023-04-03T03:08:42;7.73;;;5.23;;
75165;SDS011;63747;48.042;10.088;2023-04-03T03:11:43;5.35;;;4.82;;
75165;SDS011;63747;48.042;10.088;2023-04-03T03:14:44;4.30;;;3.90;;
75165;SDS011;63747;48.042;10.088;2023-04-03T03:17:45;5.23;;;4.30;;
75165;SDS011;63747;48.042;10.088;2023-04-03T03:20:46;5.67;;;4.43;;
75165;SDS011;63747;48.042;10.088;2023-04-03T03:23:47;9.23;;;4.87;;
75165;SDS011;63747;48.042;10.088;2023-04-03T03:26:47;5.40;;;4.17;;
75165;SDS011;63747;48.042;10.088;2023-04-03T03:29:48;10.30;;;4.57;;
75165;SDS011;63747;48.042;10.088;2023-04-03T03:32:49;4.47;;;4.03;;
75165;SDS011;63747;48.042;10.088;2023-04-03T03:35:50;6.20;;;4.60;;
75165;SDS011;63747;48.042;10.088;2023-04-03T03:38:52;4.95;;;4.35;;
75165;SDS011;63747;48.042;10.088;2023-04-03T03:41:53;4.90;;;4.20;;
75165;SDS011;63747;48.042;10.088;2023-04-03T03:44:54;4.90;;;4.30;;
75165;SDS011;63747;48.042;10.088;2023-04-03T03:48:03;6.38;;;4.25;;
75165;SDS011;63747;48.042;10.088;2023-04-03T03:51:05;5.28;;;4.38;;
75165;SDS011;63747;48.042;10.088;2023-04-03T03:54:06;4.95;;;4.38;;
75165;SDS011;63747;48.042;10.088;2023-04-03T04:00:08;4.78;;;4.10;;
75165;SDS011;63747;48.042;10.088;2023-04-03T04:03:10;5.18;;;4.25;;
75165;SDS011;63747;48.042;10.088;2023-04-03T04:06:11;7.03;;;4.47;;
75165;SDS011;63747;48.042;10.088;2023-04-03T04:09:11;6.13;;;4.33;;
75165;SDS011;63747;48.042;10.088;2023-04-03T04:12:12;4.43;;;3.47;;
75165;SDS011;63747;48.042;10.088;2023-04-03T04:15:13;5.70;;;3.37;;
75165;SDS011;63747;48.042;10.088;2023-04-03T04:18:14;5.27;;;3.63;;
75165;SDS011;63747;48.042;10.088;2023-04-03T04:21:15;3.90;;;3.17;;
75165;SDS011;63747;48.042;10.088;2023-04-03T04:24:16;4.87;;;3.57;;
75165;SDS011;63747;48.042;10.088;2023-04-03T04:27:16;5.40;;;3.70;;
75165;SDS011;63747;48.042;10.088;2023-04-03T04:30:17;5.17;;;3.27;;
75165;SDS011;63747;48.042;10.088;2023-04-03T04:33:18;5.00;;;3.37;;
75165;SDS011;63747;48.042;10.088;2023-04-03T04:36:19;5.18;;;3.63;;
75165;SDS011;63747;48.042;10.088;2023-04-03T04:39:20;4.13;;;3.53;;
75165;SDS011;63747;48.042;10.088;2023-04-03T04:42:21;4.33;;;3.20;;
75165;SDS011;63747;48.042;10.088;2023-04-03T04:45:21;5.00;;;3.30;;
75165;SDS011;63747;48.042;10.088;2023-04-03T04:48:22;3.93;;;3.50;;
75165;SDS011;63747;48.042;10.088;2023-04-03T04:51:23;4.97;;;3.57;;
75165;SDS011;63747;48.042;10.088;2023-04-03T04:54:23;4.40;;;3.83;;
75165;SDS011;63747;48.042;10.088;2023-04-03T04:57:24;4.23;;;3.43;;
75165;SDS011;63747;48.042;10.088;2023-04-03T05:00:25;5.57;;;3.50;;
75165;SDS011;63747;48.042;10.088;2023-04-03T05:03:26;4.47;;;3.33;;
75165;SDS011;63747;48.042;10.088;2023-04-03T05:06:27;3.60;;;3.23;;
75165;SDS011;63747;48.042;10.088;2023-04-03T05:09:30;4.72;;;3.80;;
75165;SDS011;63747;48.042;10.088;2023-04-03T05:12:30;4.80;;;3.50;;
75165;SDS011;63747;48.042;10.088;2023-04-03T05:15:32;4.15;;;3.13;;
75165;SDS011;63747;48.042;10.088;2023-04-03T05:18:32;4.53;;;3.40;;
75165;SDS011;63747;48.042;10.088;2023-04-03T05:21:33;4.40;;;3.33;;
75165;SDS011;63747;48.042;10.088;2023-04-03T05:24:34;5.30;;;3.73;;
75165;SDS011;63747;48.042;10.088;2023-04-03T05:27:35;4.03;;;3.33;;
75165;SDS011;63747;48.042;10.088;2023-04-03T05:30:35;6.10;;;3.90;;
75165;SDS011;63747;48.042;10.088;2023-04-03T05:33:36;3.53;;;3.20;;
75165;SDS011;63747;48.042;10.088;2023-04-03T05:36:37;3.70;;;2.97;;
75165;SDS011;63747;48.042;10.088;2023-04-03T05:39:37;4.53;;;3.40;;
75165;SDS011;63747;48.042;10.088;2023-04-03T05:42:40;4.85;;;3.35;;
75165;SDS011;63747;48.042;10.088;2023-04-03T05:45:42;4.87;;;3.47;;
75165;SDS011;63747;48.042;10.088;2023-04-03T05:48:43;3.75;;;2.95;;
75165;SDS011;63747;48.042;10.088;2023-04-03T05:51:44;4.50;;;3.35;;
75165;SDS011;63747;48.042;10.088;2023-04-03T05:54:45;3.67;;;3.27;;
75165;SDS011;63747;48.042;10.088;2023-04-03T05:57:48;4.10;;;3.38;;
75165;SDS011;63747;48.042;10.088;2023-04-03T06:00:48;6.80;;;3.40;;
75165;SDS011;63747;48.042;10.088;2023-04-03T06:03:49;3.93;;;3.10;;
75165;SDS011;63747;48.042;10.088;2023-04-03T06:06:51;4.20;;;3.53;;
75165;SDS011;63747;48.042;10.088;2023-04-03T06:09:54;6.55;;;3.38;;
75165;SDS011;63747;48.042;10.088;2023-04-03T06:12:56;3.95;;;3.47;;
75165;SDS011;63747;48.042;10.088;2023-04-03T06:15:57;4.70;;;3.83;;
75165;SDS011;63747;48.042;10.088;2023-04-03T06:18:58;5.87;;;4.00;;
75165;SDS011;63747;48.042;10.088;2023-04-03T06:21:59;4.67;;;3.67;;
75165;SDS011;63747;48.042;10.088;2023-04-03T06:25:00;5.20;;;3.93;;
75165;SDS011;63747;48.042;10.088;2023-04-03T06:28:00;7.60;;;3.97;;
75165;SDS011;63747;48.042;10.088;2023-04-03T06:31:01;5.23;;;3.63;;
75165;SDS011;63747;48.042;10.088;2023-04-03T06:34:02;4.57;;;3.90;;
75165;SDS011;63747;48.042;10.088;2023-04-03T06:37:03;4.40;;;3.80;;
75165;SDS011;63747;48.042;10.088;2023-04-03T06:40:04;4.10;;;3.70;;
75165;SDS011;63747;48.042;10.088;2023-04-03T06:43:05;4.53;;;3.63;;
75165;SDS011;63747;48.042;10.088;2023-04-03T06:46:10;5.00;;;3.67;;
75165;SDS011;63747;48.042;10.088;2023-04-03T06:49:14;4.82;;;3.78;;
75165;SDS011;63747;48.042;10.088;2023-04-03T06:52:15;6.30;;;3.83;;
75165;SDS011;63747;48.042;10.088;2023-04-03T06:55:16;4.60;;;3.60;;
75165;SDS011;63747;48.042;10.088;2023-04-03T06:58:17;5.60;;;3.47;;
75165;SDS011;63747;48.042;10.088;2023-04-03T07:01:17;4.67;;;3.87;;
75165;SDS011;63747;48.042;10.088;2023-04-03T07:04:22;5.03;;;3.33;;
75165;SDS011;63747;48.042;10.088;2023-04-03T07:07:22;4.30;;;3.80;;
75165;SDS011;63747;48.042;10.088;2023-04-03T07:10:23;5.40;;;3.90;;
75165;SDS011;63747;48.042;10.088;2023-04-03T07:13:24;5.97;;;3.70;;
75165;SDS011;63747;48.042;10.088;2023-04-03T07:16:25;6.60;;;3.60;;
75165;SDS011;63747;48.042;10.088;2023-04-03T07:19:25;4.80;;;3.77;;
75165;SDS011;63747;48.042;10.088;2023-04-03T07:22:27;3.92;;;3.53;;
75165;SDS011;63747;48.042;10.088;2023-04-03T07:25:28;4.90;;;3.60;;
75165;SDS011;63747;48.042;10.088;2023-04-03T07:28:29;3.90;;;3.58;;
75165;SDS011;63747;48.042;10.088;2023-04-03T07:31:30;5.03;;;3.60;;
75165;SDS011;63747;48.042;10.088;2023-04-03T07:34:31;3.77;;;3.43;;
75165;SDS011;63747;48.042;10.088;2023-04-03T07:37:32;4.27;;;3.23;;
75165;SDS011;63747;48.042;10.088;2023-04-03T07:40:33;4.47;;;3.07;;
75165;SDS011;63747;48.042;10.088;2023-04-03T07:43:34;5.35;;;3.45;;
75165;SDS011;63747;48.042;10.088;2023-04-03T07:46:35;4.80;;;3.83;;
75165;SDS011;63747;48.042;10.088;2023-04-03T07:49:36;4.78;;;3.63;;
75165;SDS011;63747;48.042;10.088;2023-04-03T07:52:39;6.07;;;3.70;;
75165;SDS011;63747;48.042;10.088;2023-04-03T07:55:40;5.73;;;3.60;;
75165;SDS011;63747;48.042;10.088;2023-04-03T07:58:44;4.93;;;3.60;;
75165;SDS011;63747;48.042;10.088;2023-04-03T08:01:45;5.77;;;3.43;;
75165;SDS011;63747;48.042;10.088;2023-04-03T08:04:46;6.27;;;3.77;;
75165;SDS011;63747;48.042;10.088;2023-04-03T08:07:47;5.40;;;3.90;;
75165;SDS011;63747;48.042;10.088;2023-04-03T08:10:49;4.72;;;3.67;;
75165;SDS011;63747;48.042;10.088;2023-04-03T08:13:51;5.43;;;3.38;;
75165;SDS011;63747;48.042;10.088;2023-04-03T08:16:52;5.67;;;4.00;;
75165;SDS011;63747;48.042;10.088;2023-04-03T08:19:52;4.23;;;3.83;;
75165;SDS011;63747;48.042;10.088;2023-04-03T08:22:53;4.70;;;3.40;;
75165;SDS011;63747;48.042;10.088;2023-04-03T08:25:54;5.33;;;3.80;;
75165;SDS011;63747;48.042;10.088;2023-04-03T08:28:55;3.83;;;3.37;;
75165;SDS011;63747;48.042;10.088;2023-04-03T08:31:55;4.40;;;3.50;;
75165;SDS011;63747;48.042;10.088;2023-04-03T08:34:57;5.13;;;3.58;;
75165;SDS011;63747;48.042;10.088;2023-04-03T08:37:57;5.23;;;3.83;;
75165;SDS011;63747;48.042;10.088;2023-04-03T08:41:06;3.90;;;3.47;;
75165;SDS011;63747;48.042;10.088;2023-04-03T08:51:33;3.55;;;2.95;;
75165;SDS011;63747;48.042;10.088;2023-04-03T08:54:17;4.68;;;3.40;;
75165;SDS011;63747;48.042;10.088;2023-04-03T08:57:30;4.05;;;3.35;;
75165;SDS011;63747;48.042;10.088;2023-04-03T09:01:10;4.65;;;3.38;;
75165;SDS011;63747;48.042;10.088;2023-04-03T09:04:03;3.50;;;3.03;;
75165;SDS011;63747;48.042;10.088;2023-04-03T09:07:16;3.97;;;2.83;;
75165;SDS011;63747;48.042;10.088;2023-04-03T09:10:24;4.07;;;2.95;;
75165;SDS011;63747;48.042;10.088;2023-04-03T09:17:08;3.15;;;2.75;;
75165;SDS011;63747;48.042;10.088;2023-04-03T09:26:53;3.58;;;2.90;;
75165;SDS011;63747;48.042;10.088;2023-04-03T09:29:59;3.55;;;3.00;;
75165;SDS011;63747;48.042;10.088;2023-04-03T09:33:00;4.17;;;3.20;;
75165;SDS011;63747;48.042;10.088;2023-04-03T09:36:01;3.35;;;2.80;;
75165;SDS011;63747;48.042;10.088;2023-04-03T09:39:15;4.60;;;2.70;;
75165;SDS011;63747;48.042;10.088;2023-04-03T09:42:22;4.32;;;2.75;;
75165;SDS011;63747;48.042;10.088;2023-04-03T09:45:34;3.58;;;2.85;;
75165;SDS011;63747;48.042;10.088;2023-04-03T09:48:36;3.15;;;2.08;;
75165;SDS011;63747;48.042;10.088;2023-04-03T09:51:36;5.50;;;2.90;;
75165;SDS011;63747;48.042;10.088;2023-04-03T09:54:37;4.63;;;2.70;;
75165;SDS011;63747;48.042;10.088;2023-04-03T09:57:40;3.28;;;2.47;;
75165;SDS011;63747;48.042;10.088;2023-04-03T10:00:41;3.43;;;2.40;;
75165;SDS011;63747;48.042;10.088;2023-04-03T10:03:42;4.10;;;2.90;;
75165;SDS011;63747;48.042;10.088;2023-04-03T10:06:47;3.20;;;2.40;;
75165;SDS011;63747;48.042;10.088;2023-04-03T10:09:54;3.67;;;2.60;;
75165;SDS011;63747;48.042;10.088;2023-04-03T10:13:04;4.38;;;2.55;;
75165;SDS011;63747;48.042;10.088;2023-04-03T10:16:07;4.10;;;3.10;;
75165;SDS011;63747;48.042;10.088;2023-04-03T10:22:54;3.40;;;2.60;;
75165;SDS011;63747;48.042;10.088;2023-04-03T10:46:53;3.45;;;2.60;;
75165;SDS011;63747;48.042;10.088;2023-04-03T10:57:09;2.70;;;2.38;;
75165;SDS011;63747;48.042;10.088;2023-04-03T11:00:15;3.75;;;2.55;;
75165;SDS011;63747;48.042;10.088;2023-04-03T11:06:35;2.55;;;2.17;;
75165;SDS011;63747;48.042;10.088;2023-04-03T11:09:41;2.53;;;2.08;;
75165;SDS011;63747;48.042;10.088;2023-04-03T11:16:16;3.75;;;2.05;;
75165;SDS011;63747;48.042;10.088;2023-04-03T11:22:51;4.30;;;2.17;;
75165;SDS011;63747;48.042;10.088;2023-04-03T11:26:09;3.28;;;2.10;;
75165;SDS011;63747;48.042;10.088;2023-04-03T11:29:18;2.65;;;2.00;;
75165;SDS011;63747;48.042;10.088;2023-04-03T11:32:27;3.03;;;2.17;;
75165;SDS011;63747;48.042;10.088;2023-04-03T11:35:41;3.35;;;2.30;;
75165;SDS011;63747;48.042;10.088;2023-04-03T11:38:44;4.30;;;2.20;;
75165;SDS011;63747;48.042;10.088;2023-04-03T11:41:47;2.38;;;2.10;;
75165;SDS011;63747;48.042;10.088;2023-04-03T11:44:48;3.47;;;2.40;;
75165;SDS011;63747;48.042;10.088;2023-04-03T11:47:50;3.53;;;2.40;;
75165;SDS011;63747;48.042;10.088;2023-04-03T11:50:58;3.30;;;2.22;;
75165;SDS011;63747;48.042;10.088;2023-04-03T11:54:34;2.67;;;2.22;;
75165;SDS011;63747;48.042;10.088;2023-04-03T12:04:05;2.90;;;2.20;;
75165;SDS011;63747;48.042;10.088;2023-04-03T12:07:13;3.60;;;2.45;;
75165;SDS011;63747;48.042;10.088;2023-04-03T12:10:18;3.13;;;2.10;;
75165;SDS011;63747;48.042;10.088;2023-04-03T12:13:19;2.65;;;1.80;;
75165;SDS011;63747;48.042;10.088;2023-04-03T12:19:36;2.42;;;1.92;;
75165;SDS011;63747;48.042;10.088;2023-04-03T12:23:06;3.58;;;1.92;;
75165;SDS011;63747;48.042;10.088;2023-04-03T12:26:24;4.97;;;1.58;;
75165;SDS011;63747;48.042;10.088;2023-04-03T12:29:38;3.00;;;2.00;;
75165;SDS011;63747;48.042;10.088;2023-04-03T12:33:04;3.90;;;1.70;;
75165;SDS011;63747;48.042;10.088;2023-04-03T12:36:26;4.10;;;1.90;;
75165;SDS011;63747;48.042;10.088;2023-04-03T12:43:17;3.53;;;2.28;;
75165;SDS011;63747;48.042;10.088;2023-04-03T12:46:36;3.10;;;1.90;;
75165;SDS011;63747;48.042;10.088;2023-04-03T12:49:45;2.90;;;2.20;;
75165;SDS011;63747;48.042;10.088;2023-04-03T12:53:11;3.35;;;2.13;;
75165;SDS011;63747;48.042;10.088;2023-04-03T12:59:25;3.72;;;1.95;;
75165;SDS011;63747;48.042;10.088;2023-04-03T13:05:32;3.97;;;2.10;;
75165;SDS011;63747;48.042;10.088;2023-04-03T13:08:33;4.45;;;2.15;;
75165;SDS011;63747;48.042;10.088;2023-04-03T13:11:35;3.23;;;2.10;;
75165;SDS011;63747;48.042;10.088;2023-04-03T13:14:39;3.53;;;2.15;;
75165;SDS011;63747;48.042;10.088;2023-04-03T13:17:41;3.58;;;2.05;;
75165;SDS011;63747;48.042;10.088;2023-04-03T13:20:43;6.30;;;2.33;;
75165;SDS011;63747;48.042;10.088;2023-04-03T13:23:44;3.30;;;2.40;;
75165;SDS011;63747;48.042;10.088;2023-04-03T13:26:48;3.47;;;2.15;;
75165;SDS011;63747;48.042;10.088;2023-04-03T13:29:53;3.90;;;2.38;;
75165;SDS011;63747;48.042;10.088;2023-04-03T13:32:57;3.13;;;2.25;;
75165;SDS011;63747;48.042;10.088;2023-04-03T13:36:05;3.67;;;2.08;;
75165;SDS011;63747;48.042;10.088;2023-04-03T13:42:17;3.75;;;2.38;;
75165;SDS011;63747;48.042;10.088;2023-04-03T13:45:24;3.92;;;2.50;;
75165;SDS011;63747;48.042;10.088;2023-04-03T13:48:28;2.47;;;2.00;;
75165;SDS011;63747;48.042;10.088;2023-04-03T13:51:39;3.67;;;2.30;;
75165;SDS011;63747;48.042;10.088;2023-04-03T13:54:40;4.67;;;2.20;;
75165;SDS011;63747;48.042;10.088;2023-04-03T13:58:00;4.40;;;2.30;;
75165;SDS011;63747;48.042;10.088;2023-04-03T14:01:22;4.70;;;2.55;;
75165;SDS011;63747;48.042;10.088;2023-04-03T14:04:25;5.03;;;2.47;;
75165;SDS011;63747;48.042;10.088;2023-04-03T14:07:29;3.45;;;2.42;;
75165;SDS011;63747;48.042;10.088;2023-04-03T14:10:33;8.23;;;2.40;;
75165;SDS011;63747;48.042;10.088;2023-04-03T14:13:34;3.00;;;2.33;;
75165;SDS011;63747;48.042;10.088;2023-04-03T14:16:37;2.63;;;1.97;;
75165;SDS011;63747;48.042;10.088;2023-04-03T14:19:40;4.43;;;2.33;;
75165;SDS011;63747;48.042;10.088;2023-04-03T14:22:40;6.10;;;2.47;;
75165;SDS011;63747;48.042;10.088;2023-04-03T14:25:41;3.80;;;2.20;;
75165;SDS011;63747;48.042;10.088;2023-04-03T14:28:45;5.32;;;2.28;;
75165;SDS011;63747;48.042;10.088;2023-04-03T14:31:47;5.28;;;2.63;;
75165;SDS011;63747;48.042;10.088;2023-04-03T14:34:49;3.83;;;2.40;;
75165;SDS011;63747;48.042;10.088;2023-04-03T14:40:52;3.47;;;2.13;;
75165;SDS011;63747;48.042;10.088;2023-04-03T14:46:54;3.88;;;2.30;;
75165;SDS011;63747;48.042;10.088;2023-04-03T14:52:58;2.70;;;1.92;;
75165;SDS011;63747;48.042;10.088;2023-04-03T14:55:59;3.85;;;2.20;;
75165;SDS011;63747;48.042;10.088;2023-04-03T14:59:00;6.30;;;2.37;;
75165;SDS011;63747;48.042;10.088;2023-04-03T15:02:02;4.47;;;2.20;;
75165;SDS011;63747;48.042;10.088;2023-04-03T15:05:08;3.63;;;2.00;;
75165;SDS011;63747;48.042;10.088;2023-04-03T15:08:22;4.32;;;2.13;;
75165;SDS011;63747;48.042;10.088;2023-04-03T15:11:25;3.55;;;2.10;;
75165;SDS011;63747;48.042;10.088;2023-04-03T15:14:26;4.10;;;2.00;;
75165;SDS011;63747;48.042;10.088;2023-04-03T15:17:27;3.10;;;1.80;;
75165;SDS011;63747;48.042;10.088;2023-04-03T15:20:29;3.60;;;2.10;;
75165;SDS011;63747;48.042;10.088;2023-04-03T15:23:30;3.78;;;2.00;;
75165;SDS011;63747;48.042;10.088;2023-04-03T15:26:32;4.10;;;1.90;;
75165;SDS011;63747;48.042;10.088;2023-04-03T15:29:33;4.45;;;2.20;;
75165;SDS011;63747;48.042;10.088;2023-04-03T15:32:34;3.37;;;1.90;;
75165;SDS011;63747;48.042;10.088;2023-04-03T15:35:35;3.72;;;2.13;;
75165;SDS011;63747;48.042;10.088;2023-04-03T15:38:35;3.17;;;2.10;;
75165;SDS011;63747;48.042;10.088;2023-04-03T15:41:38;3.63;;;1.85;;
75165;SDS011;63747;48.042;10.088;2023-04-03T15:44:38;3.70;;;1.90;;
75165;SDS011;63747;48.042;10.088;2023-04-03T15:47:39;2.53;;;1.73;;
75165;SDS011;63747;48.042;10.088;2023-04-03T15:50:40;5.57;;;2.03;;
75165;SDS011;63747;48.042;10.088;2023-04-03T15:53:40;4.33;;;2.27;;
75165;SDS011;63747;48.042;10.088;2023-04-03T15:56:42;2.80;;;1.98;;
75165;SDS011;63747;48.042;10.088;2023-04-03T15:59:43;3.38;;;1.90;;
75165;SDS011;63747;48.042;10.088;2023-04-03T16:02:44;4.23;;;2.50;;
75165;SDS011;63747;48.042;10.088;2023-04-03T16:05:47;4.07;;;1.95;;
75165;SDS011;63747;48.042;10.088;2023-04-03T16:08:48;2.77;;;1.70;;
75165;SDS011;63747;48.042;10.088;2023-04-03T16:11:49;2.17;;;1.55;;
75165;SDS011;63747;48.042;10.088;2023-04-03T16:14:50;3.10;;;1.83;;
75165;SDS011;63747;48.042;10.088;2023-04-03T16:17:52;3.65;;;2.00;;
75165;SDS011;63747;48.042;10.088;2023-04-03T16:20:53;2.85;;;1.77;;
75165;SDS011;63747;48.042;10.088;2023-04-03T16:23:56;3.07;;;1.50;;
75165;SDS011;63747;48.042;10.088;2023-04-03T16:26:58;3.55;;;1.50;;
75165;SDS011;63747;48.042;10.088;2023-04-03T16:29:59;2.10;;;1.43;;
75165;SDS011;63747;48.042;10.088;2023-04-03T16:33:00;2.70;;;1.65;;
75165;SDS011;63747;48.042;10.088;2023-04-03T16:36:02;2.17;;;1.48;;
75165;SDS011;63747;48.042;10.088;2023-04-03T16:39:04;2.58;;;1.52;;
75165;SDS011;63747;48.042;10.088;2023-04-03T16:42:05;3.43;;;1.90;;
75165;SDS011;63747;48.042;10.088;2023-04-03T16:45:06;2.37;;;1.60;;
75165;SDS011;63747;48.042;10.088;2023-04-03T16:48:07;3.63;;;1.52;;
75165;SDS011;63747;48.042;10.088;2023-04-03T16:51:11;3.40;;;1.70;;
75165;SDS011;63747;48.042;10.088;2023-04-03T16:54:12;1.77;;;1.15;;
75165;SDS011;63747;48.042;10.088;2023-04-03T16:57:13;2.17;;;1.50;;
75165;SDS011;63747;48.042;10.088;2023-04-03T17:00:14;2.13;;;1.27;;
75165;SDS011;63747;48.042;10.088;2023-04-03T17:03:15;2.38;;;1.00;;
75165;SDS011;63747;48.042;10.088;2023-04-03T17:06:17;2.10;;;1.40;;
75165;SDS011;63747;48.042;10.088;2023-04-03T17:09:19;1.67;;;1.10;;
75165;SDS011;63747;48.042;10.088;2023-04-03T17:12:21;3.17;;;1.40;;
75165;SDS011;63747;48.042;10.088;2023-04-03T17:15:22;2.17;;;1.30;;
75165;SDS011;63747;48.042;10.088;2023-04-03T17:18:24;2.67;;;1.30;;
75165;SDS011;63747;48.042;10.088;2023-04-03T17:21:25;3.05;;;1.45;;
75165;SDS011;63747;48.042;10.088;2023-04-03T17:24:26;4.27;;;1.50;;
75165;SDS011;63747;48.042;10.088;2023-04-03T17:27:28;3.72;;;1.40;;
75165;SDS011;63747;48.042;10.088;2023-04-03T17:30:28;2.63;;;1.50;;
75165;SDS011;63747;48.042;10.088;2023-04-03T17:33:29;2.77;;;1.40;;
75165;SDS011;63747;48.042;10.088;2023-04-03T17:36:31;3.23;;;1.33;;
75165;SDS011;63747;48.042;10.088;2023-04-03T17:39:33;2.95;;;1.38;;
75165;SDS011;63747;48.042;10.088;2023-04-03T17:42:33;2.17;;;1.43;;
75165;SDS011;63747;48.042;10.088;2023-04-03T17:45:34;4.80;;;1.57;;
75165;SDS011;63747;48.042;10.088;2023-04-03T17:48:36;4.03;;;1.37;;
75165;SDS011;63747;48.042;10.088;2023-04-03T17:51:37;2.35;;;1.17;;
75165;SDS011;63747;48.042;10.088;2023-04-03T17:54:38;2.23;;;1.20;;
75165;SDS011;63747;48.042;10.088;2023-04-03T17:57:40;5.50;;;1.75;;
75165;SDS011;63747;48.042;10.088;2023-04-03T18:00:40;4.03;;;1.80;;
75165;SDS011;63747;48.042;10.088;2023-04-03T18:03:41;3.20;;;1.57;;
75165;SDS011;63747;48.042;10.088;2023-04-03T18:06:44;2.40;;;1.42;;
75165;SDS011;63747;48.042;10.088;2023-04-03T18:09:47;1.88;;;1.40;;
75165;SDS011;63747;48.042;10.088;2023-04-03T18:12:50;4.10;;;1.67;;
75165;SDS011;63747;48.042;10.088;2023-04-03T18:15:52;5.13;;;1.65;;
75165;SDS011;63747;48.042;10.088;2023-04-03T18:18:52;2.63;;;1.57;;
75165;SDS011;63747;48.042;10.088;2023-04-03T18:21:54;5.53;;;1.43;;
75165;SDS011;63747;48.042;10.088;2023-04-03T18:24:57;3.08;;;1.30;;
75165;SDS011;63747;48.042;10.088;2023-04-03T18:27:58;3.92;;;1.50;;
75165;SDS011;63747;48.042;10.088;2023-04-03T18:31:02;2.78;;;1.42;;
75165;SDS011;63747;48.042;10.088;2023-04-03T18:34:03;3.78;;;1.60;;
75165;SDS011;63747;48.042;10.088;2023-04-03T18:37:03;2.67;;;1.30;;
75165;SDS011;63747;48.042;10.088;2023-04-03T18:40:05;3.60;;;1.40;;
75165;SDS011;63747;48.042;10.088;2023-04-03T18:43:06;2.55;;;1.45;;
75165;SDS011;63747;48.042;10.088;2023-04-03T18:46:06;2.27;;;1.30;;
75165;SDS011;63747;48.042;10.088;2023-04-03T18:49:08;2.60;;;1.70;;
75165;SDS011;63747;48.042;10.088;2023-04-03T18:55:10;4.63;;;1.42;;
75165;SDS011;63747;48.042;10.088;2023-04-03T18:58:11;4.65;;;1.90;;
75165;SDS011;63747;48.042;10.088;2023-04-03T19:01:12;4.30;;;1.60;;
75165;SDS011;63747;48.042;10.088;2023-04-03T19:04:14;2.60;;;1.70;;
75165;SDS011;63747;48.042;10.088;2023-04-03T19:07:15;2.57;;;1.40;;
75165;SDS011;63747;48.042;10.088;2023-04-03T19:10:16;3.27;;;1.57;;
75165;SDS011;63747;48.042;10.088;2023-04-03T19:13:17;2.65;;;1.50;;
75165;SDS011;63747;48.042;10.088;2023-04-03T19:16:17;3.50;;;1.80;;
75165;SDS011;63747;48.042;10.088;2023-04-03T19:19:18;4.00;;;1.97;;
75165;SDS011;63747;48.042;10.088;2023-04-03T19:22:19;3.33;;;1.30;;
75165;SDS011;63747;48.042;10.088;2023-04-03T19:25:20;3.00;;;1.60;;
75165;SDS011;63747;48.042;10.088;2023-04-03T19:28:21;2.60;;;1.20;;
75165;SDS011;63747;48.042;10.088;2023-04-03T19:31:21;2.27;;;1.40;;
75165;SDS011;63747;48.042;10.088;2023-04-03T19:34:22;1.80;;;1.10;;
75165;SDS011;63747;48.042;10.088;2023-04-03T19:37:23;2.40;;;1.50;;
75165;SDS011;63747;48.042;10.088;2023-04-03T19:40:24;3.28;;;1.45;;
75165;SDS011;63747;48.042;10.088;2023-04-03T19:43:27;2.38;;;1.13;;